createdAt,value
2022-09-14T00:01:44.514Z,2.63
2022-09-14T00:04:14.628Z,2.70
2022-09-14T00:06:43.239Z,2.08
2022-09-14T00:09:16.060Z,1.55
2022-09-14T00:11:46.386Z,1.27
2022-09-14T00:14:14.997Z,2.25
2022-09-14T00:16:44.584Z,2.33
2022-09-14T00:19:18.665Z,3.42
2022-09-14T00:21:47.020Z,4.53
2022-09-14T00:24:15.247Z,3.25
2022-09-14T00:26:44.960Z,1.65
2022-09-14T00:29:13.596Z,1.95
2022-09-14T00:31:42.259Z,3.90
2022-09-14T00:34:15.157Z,1.65
2022-09-14T00:36:47.458Z,3.28
2022-09-14T00:39:16.417Z,1.55
2022-09-14T00:41:48.740Z,2.78
2022-09-14T00:44:55.051Z,2.70
2022-09-14T00:47:23.448Z,3.17
2022-09-14T00:49:52.186Z,2.53
2022-09-14T00:52:25.867Z,2.38
2022-09-14T00:54:56.447Z,1.83
2022-09-14T00:57:28.667Z,2.25
2022-09-14T00:59:57.477Z,1.35
2022-09-14T01:02:28.603Z,2.30
2022-09-14T01:04:57.705Z,2.10
2022-09-14T01:07:36.980Z,3.50
2022-09-14T01:10:14.748Z,2.70
2022-09-14T01:12:55.157Z,1.73
2022-09-14T01:15:30.377Z,4.93
2022-09-14T01:18:07.957Z,2.80
2022-09-14T01:20:40.680Z,2.17
2022-09-14T01:23:28.667Z,2.57
2022-09-14T01:26:19.665Z,1.35
2022-09-14T01:28:55.158Z,4.72
2022-09-14T01:31:31.576Z,2.60
2022-09-14T01:34:09.616Z,2.05
2022-09-14T01:36:40.697Z,3.55
2022-09-14T01:39:10.687Z,1.83
2022-09-14T01:41:42.405Z,1.50
2022-09-14T01:44:16.457Z,4.32
2022-09-14T01:46:48.477Z,1.88
2022-09-14T01:49:20.888Z,1.83
2022-09-14T01:51:51.316Z,1.65
2022-09-14T01:54:23.906Z,2.60
2022-09-14T01:56:56.956Z,2.80
2022-09-14T01:59:30.258Z,3.17
2022-09-14T02:02:04.091Z,2.58
2022-09-14T02:04:40.839Z,2.22
2022-09-14T02:07:09.557Z,2.15
2022-09-14T02:09:37.959Z,2.75
2022-09-14T02:12:06.746Z,3.65
2022-09-14T02:14:36.366Z,2.00
2022-09-14T02:17:04.891Z,2.17
2022-09-14T02:19:38.596Z,2.13
2022-09-14T02:22:06.967Z,2.17
2022-09-14T02:24:35.250Z,1.52
2022-09-14T02:27:04.698Z,1.52
2022-09-14T02:29:33.272Z,1.85
2022-09-14T02:32:14.266Z,1.95
2022-09-14T02:34:53.546Z,1.77
2022-09-14T02:37:29.070Z,1.88
2022-09-14T02:40:07.323Z,2.58
2022-09-14T02:42:41.419Z,2.13
2022-09-14T02:45:21.796Z,5.70
2022-09-14T02:47:57.867Z,2.40
2022-09-14T02:50:34.287Z,1.83
2022-09-14T02:53:09.117Z,2.95
2022-09-14T02:55:43.177Z,3.40
2022-09-14T02:58:14.046Z,3.03
2022-09-14T03:00:44.394Z,2.90
2022-09-14T03:03:15.736Z,2.13
2022-09-14T03:05:44.307Z,3.33
2022-09-14T03:08:13.026Z,5.28
2022-09-14T03:10:43.976Z,3.30
2022-09-14T03:13:12.658Z,6.95
2022-09-14T03:15:41.455Z,2.15
2022-09-14T03:18:14.080Z,5.00
2022-09-14T03:20:44.536Z,2.13
2022-09-14T03:23:13.966Z,3.85
2022-09-14T03:25:44.547Z,2.78
2022-09-14T03:28:13.788Z,3.35
2022-09-14T03:30:42.467Z,2.80
2022-09-14T03:33:10.766Z,3.70
2022-09-14T03:35:39.027Z,3.75
2022-09-14T03:38:08.519Z,4.93
2022-09-14T03:40:37.023Z,3.38
2022-09-14T03:43:05.138Z,4.30
2022-09-14T03:45:33.427Z,3.55
2022-09-14T03:48:01.555Z,2.10
2022-09-14T03:50:29.827Z,5.30
2022-09-14T03:52:58.374Z,3.33
2022-09-14T03:55:27.898Z,2.85
2022-09-14T03:57:56.520Z,3.40
2022-09-14T04:00:25.127Z,2.42
2022-09-14T04:02:53.593Z,6.70
2022-09-14T04:05:22.211Z,2.58
2022-09-14T04:07:50.496Z,3.55
2022-09-14T04:10:19.156Z,4.03
2022-09-14T04:12:48.727Z,7.13
2022-09-14T04:15:16.985Z,2.85
2022-09-14T04:17:45.287Z,2.40
2022-09-14T04:20:13.577Z,3.85
2022-09-14T04:22:41.775Z,2.58
2022-09-14T04:25:10.167Z,3.33
2022-09-14T04:27:38.377Z,4.40
2022-09-14T04:30:09.004Z,5.70
2022-09-14T04:32:37.207Z,3.30
2022-09-14T04:35:05.636Z,4.05
2022-09-14T04:37:33.957Z,4.78
2022-09-14T04:40:02.155Z,6.78
2022-09-14T04:42:31.440Z,6.93
2022-09-14T04:44:59.597Z,5.45
2022-09-14T04:47:29.958Z,5.18
2022-09-14T04:49:58.227Z,7.43
2022-09-14T04:52:26.307Z,5.95
2022-09-14T04:54:54.676Z,5.22
2022-09-14T04:57:22.916Z,5.20
2022-09-14T04:59:51.127Z,8.07
2022-09-14T05:02:19.372Z,5.15
2022-09-14T05:04:48.943Z,5.20
2022-09-14T05:07:17.099Z,7.45
2022-09-14T05:09:45.637Z,6.53
2022-09-14T05:12:13.884Z,8.18
2022-09-14T05:14:42.117Z,8.07
2022-09-14T05:17:10.564Z,6.78
2022-09-14T05:19:38.796Z,8.30
2022-09-14T05:22:08.297Z,12.05
2022-09-14T05:24:36.686Z,8.55
2022-09-14T05:27:05.018Z,10.05
2022-09-14T05:29:33.279Z,9.45
2022-09-14T05:32:01.788Z,9.88
2022-09-14T05:34:30.037Z,11.95
2022-09-14T05:36:58.406Z,10.95
2022-09-14T05:39:28.074Z,11.10
2022-09-14T05:41:56.217Z,9.63
2022-09-14T05:44:24.506Z,11.65
2022-09-14T05:46:52.706Z,11.60
2022-09-14T05:49:20.956Z,11.05
2022-09-14T05:51:49.187Z,10.77
2022-09-14T05:54:17.907Z,11.27
2022-09-14T05:56:47.308Z,9.55
2022-09-14T05:59:15.756Z,9.75
2022-09-14T06:01:43.843Z,9.95
2022-09-14T06:04:12.887Z,9.45
2022-09-14T06:06:41.088Z,8.80
2022-09-14T06:09:09.356Z,11.70
2022-09-14T06:11:37.565Z,9.20
2022-09-14T06:14:07.643Z,9.43
2022-09-14T06:16:36.140Z,8.50
2022-09-14T06:19:04.657Z,8.68
2022-09-14T06:21:35.482Z,9.75
2022-09-14T06:24:04.210Z,9.30
2022-09-14T06:26:32.536Z,10.27
2022-09-14T06:29:00.838Z,12.05
2022-09-14T06:31:30.450Z,13.48
2022-09-14T06:33:58.622Z,16.17
2022-09-14T06:36:28.402Z,13.40
2022-09-14T06:38:57.105Z,15.18
2022-09-14T06:41:29.232Z,17.33
2022-09-14T06:43:59.113Z,17.42
2022-09-14T06:46:30.987Z,13.65
2022-09-14T06:49:01.447Z,17.15
2022-09-14T06:51:32.048Z,15.43
2022-09-14T06:54:01.537Z,19.08
2022-09-14T06:56:35.669Z,9.88
2022-09-14T06:59:04.995Z,12.82
2022-09-14T07:01:35.477Z,11.63
2022-09-14T07:04:05.344Z,12.25
2022-09-14T07:06:39.496Z,9.52
2022-09-14T07:09:07.959Z,11.63
2022-09-14T07:11:36.505Z,10.35
2022-09-14T07:14:08.332Z,15.15
2022-09-14T07:16:39.998Z,12.38
2022-09-14T07:19:12.178Z,12.30
2022-09-14T07:21:41.254Z,8.70
2022-09-14T07:24:09.647Z,10.20
2022-09-14T07:26:41.918Z,11.52
2022-09-14T07:29:13.619Z,14.45
2022-09-14T07:31:45.357Z,13.93
2022-09-14T07:34:15.253Z,11.32
2022-09-14T07:36:44.616Z,14.93
2022-09-14T07:39:14.399Z,15.90
2022-09-14T07:41:43.453Z,12.25
2022-09-14T07:44:15.747Z,11.48
2022-09-14T07:46:46.698Z,10.65
2022-09-14T07:49:16.037Z,10.55
2022-09-14T07:51:44.167Z,9.15
2022-09-14T07:54:14.607Z,8.75
2022-09-14T07:56:43.688Z,11.90
2022-09-14T08:02:02.652Z,10.32
2022-09-14T08:04:30.825Z,10.77
2022-09-14T08:06:59.079Z,11.60
2022-09-14T08:09:27.840Z,9.07
2022-09-14T08:11:56.246Z,7.47
2022-09-14T08:14:24.574Z,14.32
2022-09-14T08:16:52.699Z,9.25
2022-09-14T08:19:22.146Z,11.60
2022-09-14T08:21:51.176Z,8.38
2022-09-14T08:24:20.995Z,7.18
2022-09-14T08:26:50.296Z,8.65
2022-09-14T08:29:20.077Z,9.52
2022-09-14T08:31:51.623Z,7.45
2022-09-14T08:34:21.526Z,8.55
2022-09-14T08:36:49.737Z,7.00
2022-09-14T08:39:18.529Z,8.75
2022-09-14T08:41:53.065Z,5.60
2022-09-14T08:44:27.086Z,6.72
2022-09-14T08:47:00.678Z,5.60
2022-09-14T08:52:24.169Z,4.28
2022-09-14T08:54:56.860Z,7.53
2022-09-14T08:57:33.017Z,4.05
2022-09-14T09:00:08.246Z,6.70
2022-09-14T09:03:13.554Z,4.18
2022-09-14T09:05:50.486Z,5.25
2022-09-14T09:08:24.708Z,5.82
2022-09-14T09:10:55.319Z,6.40
2022-09-14T09:13:27.727Z,3.70
2022-09-14T09:16:01.074Z,5.88
2022-09-14T09:18:37.225Z,6.18
2022-09-14T09:21:12.788Z,8.57
2022-09-14T09:23:42.286Z,8.38
2022-09-14T09:26:17.515Z,5.55
2022-09-14T09:28:49.626Z,5.53
2022-09-14T09:31:20.027Z,7.85
2022-09-14T09:36:47.776Z,4.93
2022-09-14T09:39:16.847Z,7.15
2022-09-14T09:41:48.834Z,4.78
2022-09-14T09:44:16.933Z,6.35
2022-09-14T09:46:49.702Z,7.15
2022-09-14T09:49:22.336Z,8.38
2022-09-14T09:51:53.421Z,7.63
2022-09-14T09:54:28.237Z,5.55
2022-09-14T09:56:58.716Z,4.65
2022-09-14T09:59:32.516Z,7.63
2022-09-14T10:02:24.297Z,7.00
2022-09-14T10:05:20.056Z,5.47
2022-09-14T10:07:56.106Z,9.27
2022-09-14T10:10:28.109Z,5.60
2022-09-14T10:12:57.976Z,4.85
2022-09-14T10:15:28.580Z,5.85
2022-09-14T10:18:05.916Z,6.47
2022-09-14T10:20:34.708Z,8.05
2022-09-14T10:23:24.776Z,7.03
2022-09-14T10:25:54.586Z,4.82
2022-09-14T10:28:24.886Z,9.18
2022-09-14T10:30:57.976Z,9.73
2022-09-14T10:33:26.304Z,5.90
2022-09-14T10:36:02.726Z,9.68
2022-09-14T10:38:34.818Z,8.90
2022-09-14T10:41:14.516Z,5.22
2022-09-14T10:43:59.844Z,3.47
2022-09-14T10:46:31.772Z,3.05
2022-09-14T10:49:20.137Z,5.45
2022-09-14T10:51:59.706Z,6.75
2022-09-14T10:54:51.037Z,6.30
2022-09-14T10:57:29.817Z,5.68
2022-09-14T11:00:03.287Z,5.75
2022-09-14T11:05:16.137Z,4.53
2022-09-14T11:07:54.328Z,4.25
2022-09-14T11:10:31.165Z,4.65
2022-09-14T11:13:18.558Z,7.50
2022-09-14T11:15:56.373Z,6.30
2022-09-14T11:18:31.986Z,6.43
2022-09-14T11:21:10.358Z,6.28
2022-09-14T11:23:47.554Z,4.65
2022-09-14T11:26:24.338Z,3.67
2022-09-14T11:28:57.045Z,6.55
2022-09-14T11:31:30.316Z,10.13
2022-09-14T11:34:07.847Z,7.00
2022-09-14T11:36:41.478Z,13.18
2022-09-14T11:41:51.576Z,6.88
2022-09-14T11:44:24.466Z,6.93
2022-09-14T11:47:00.902Z,7.57
2022-09-14T11:49:35.536Z,9.85
2022-09-14T11:52:09.097Z,5.35
2022-09-14T11:57:19.317Z,4.03
2022-09-14T11:59:51.484Z,7.83
2022-09-14T12:02:49.991Z,5.90
2022-09-14T12:05:37.216Z,10.27
2022-09-14T12:08:25.347Z,9.40
2022-09-14T12:11:28.721Z,9.82
2022-09-14T12:14:29.692Z,8.00
2022-09-14T12:17:38.305Z,11.45
2022-09-14T12:20:35.147Z,8.35
2022-09-14T12:23:14.215Z,5.35
2022-09-14T12:25:58.246Z,8.15
2022-09-14T12:28:30.795Z,9.77
2022-09-14T12:31:36.341Z,9.73
2022-09-14T12:34:17.956Z,8.57
2022-09-14T12:37:12.066Z,7.57
2022-09-14T12:40:00.634Z,9.43
2022-09-14T12:42:32.272Z,5.50
2022-09-14T12:45:38.715Z,5.55
2022-09-14T12:48:09.606Z,6.47
2022-09-14T12:50:41.776Z,6.72
2022-09-14T12:53:30.943Z,6.35
2022-09-14T12:56:05.299Z,9.35
2022-09-14T12:58:49.187Z,8.57
2022-09-14T13:01:29.628Z,6.78
2022-09-14T13:03:59.099Z,6.72
2022-09-14T13:06:36.624Z,7.95
2022-09-14T13:09:09.491Z,7.57
2022-09-14T13:11:41.623Z,7.13
2022-09-14T13:14:17.526Z,10.00
2022-09-14T13:16:49.026Z,8.63
2022-09-14T13:19:23.534Z,5.95
2022-09-14T13:21:54.936Z,7.28
2022-09-14T13:24:26.346Z,7.53
2022-09-14T13:26:56.087Z,9.80
2022-09-14T13:29:26.817Z,7.25
2022-09-14T13:31:59.814Z,7.25
2022-09-14T13:34:34.523Z,6.70
2022-09-14T13:37:06.274Z,8.52
2022-09-14T13:39:40.214Z,8.68
2022-09-14T13:42:10.416Z,6.88
2022-09-14T13:44:45.313Z,5.72
2022-09-14T13:47:15.496Z,10.15
2022-09-14T13:49:45.585Z,7.25
2022-09-14T13:52:49.767Z,10.13
2022-09-14T13:55:23.016Z,6.22
2022-09-14T14:00:50.034Z,5.70
2022-09-14T14:03:28.996Z,7.13
2022-09-14T14:05:58.086Z,8.88
2022-09-14T14:08:35.047Z,8.75
2022-09-14T14:11:05.956Z,13.02
2022-09-14T14:13:37.337Z,7.60
2022-09-14T14:16:24.744Z,7.32
2022-09-14T14:18:55.548Z,6.70
2022-09-14T14:21:32.086Z,5.88
2022-09-14T14:24:26.389Z,6.63
2022-09-14T14:26:56.156Z,3.25
2022-09-14T14:29:25.828Z,7.68
2022-09-14T14:31:57.054Z,4.85
2022-09-14T14:34:27.396Z,5.22
2022-09-14T14:36:56.239Z,3.60
2022-09-14T14:39:26.601Z,4.90
2022-09-14T14:41:55.190Z,4.15
2022-09-14T14:44:28.299Z,3.35
2022-09-14T14:46:57.502Z,2.00
2022-09-14T14:49:25.608Z,3.90
2022-09-14T14:51:54.248Z,4.28
2022-09-14T14:54:22.565Z,4.32
2022-09-14T14:56:52.937Z,3.58
2022-09-14T14:59:29.426Z,3.70
2022-09-14T15:01:58.135Z,3.38
2022-09-14T15:04:26.637Z,3.17
2022-09-14T15:06:55.083Z,3.00
2022-09-14T15:09:25.187Z,3.40
2022-09-14T15:11:55.366Z,6.38
2022-09-14T15:14:27.160Z,2.13
2022-09-14T15:16:59.969Z,2.28
2022-09-14T15:19:28.946Z,4.43
2022-09-14T15:22:00.982Z,5.53
2022-09-14T15:24:30.308Z,3.50
2022-09-14T15:27:00.438Z,3.15
2022-09-14T15:29:28.637Z,4.85
2022-09-14T15:31:57.221Z,4.47
2022-09-14T15:34:25.568Z,2.90
2022-09-14T15:36:54.877Z,2.20
2022-09-14T15:39:24.825Z,3.28
2022-09-14T15:41:53.707Z,1.77
2022-09-14T15:44:23.658Z,6.00
2022-09-14T15:46:52.755Z,3.75
2022-09-14T15:49:23.606Z,2.90
2022-09-14T15:51:53.878Z,4.93
2022-09-14T15:54:24.507Z,1.83
2022-09-14T15:56:56.613Z,1.70
2022-09-14T15:59:26.385Z,3.10
2022-09-14T16:01:55.071Z,3.90
2022-09-14T16:04:23.486Z,1.17
2022-09-14T16:06:51.834Z,5.10
2022-09-14T16:09:22.381Z,2.25
2022-09-14T16:11:51.134Z,2.30
2022-09-14T16:14:19.466Z,3.08
2022-09-14T16:16:49.183Z,1.23
2022-09-14T16:19:17.546Z,3.80
2022-09-14T16:21:48.414Z,5.35
2022-09-14T16:24:21.240Z,2.88
2022-09-14T16:26:49.526Z,2.35
2022-09-14T16:29:19.315Z,6.18
2022-09-14T16:31:50.007Z,1.73
2022-09-14T16:34:20.625Z,4.05
2022-09-14T16:36:49.845Z,4.25
2022-09-14T16:39:19.986Z,2.35
2022-09-14T16:41:48.224Z,1.92
2022-09-14T16:44:20.279Z,1.52
2022-09-14T16:46:50.406Z,0.65
2022-09-14T16:49:22.406Z,2.20
2022-09-14T16:51:54.800Z,1.15
2022-09-14T16:54:25.470Z,3.50
2022-09-14T16:56:57.024Z,1.48
2022-09-14T16:59:25.817Z,0.82
2022-09-14T17:01:55.906Z,1.65
2022-09-14T17:04:25.728Z,3.80
2022-09-14T17:06:56.198Z,4.25
2022-09-14T17:09:26.727Z,2.03
2022-09-14T17:11:56.135Z,2.22
2022-09-14T17:14:28.499Z,2.45
2022-09-14T17:16:58.747Z,1.15
2022-09-14T17:19:27.386Z,1.35
2022-09-14T17:21:56.405Z,2.03
2022-09-14T17:24:25.955Z,4.63
2022-09-14T17:26:54.286Z,1.15
2022-09-14T17:29:22.529Z,1.20
2022-09-14T17:31:51.124Z,2.17
2022-09-14T17:34:20.515Z,1.55
2022-09-14T17:36:48.896Z,1.40
2022-09-14T17:39:17.055Z,0.70
2022-09-14T17:41:45.309Z,1.40
2022-09-14T17:44:16.046Z,1.58
2022-09-14T17:46:52.096Z,1.10
2022-09-14T17:49:24.090Z,4.65
2022-09-14T17:51:52.605Z,4.22
2022-09-14T17:54:21.326Z,1.33
2022-09-14T17:56:49.755Z,3.90
2022-09-14T17:59:21.024Z,1.33
2022-09-14T18:01:49.846Z,2.33
2022-09-14T18:04:18.590Z,1.58
2022-09-14T18:06:49.845Z,2.67
2022-09-14T18:09:19.856Z,3.13
2022-09-14T18:11:49.596Z,1.63
2022-09-14T18:14:17.839Z,1.30
2022-09-14T18:16:46.951Z,1.15
2022-09-14T18:19:15.758Z,0.65
2022-09-14T18:21:47.789Z,1.83
2022-09-14T18:24:20.465Z,2.00
2022-09-14T18:26:48.788Z,1.35
2022-09-14T18:29:21.165Z,1.40
2022-09-14T18:31:49.699Z,0.73
2022-09-14T18:34:18.388Z,3.88
2022-09-14T18:36:46.607Z,1.73
2022-09-14T18:39:15.954Z,3.97
2022-09-14T18:41:45.337Z,3.17
2022-09-14T18:44:13.516Z,1.70
2022-09-14T18:46:42.222Z,1.92
2022-09-14T18:49:10.357Z,1.38
2022-09-14T18:51:38.638Z,0.70
2022-09-14T18:54:08.837Z,1.20
2022-09-14T18:56:38.397Z,1.05
2022-09-14T18:59:11.216Z,0.80
2022-09-14T19:01:40.462Z,1.27
2022-09-14T19:04:09.796Z,3.45
2022-09-14T19:06:39.326Z,2.90
2022-09-14T19:09:08.825Z,2.80
2022-09-14T19:11:37.238Z,4.20
2022-09-14T19:14:10.271Z,1.05
2022-09-14T19:16:40.318Z,2.10
2022-09-14T19:19:10.176Z,1.15
2022-09-14T19:21:38.746Z,1.00
2022-09-14T19:24:09.984Z,0.95
2022-09-14T19:26:44.848Z,1.48
2022-09-14T19:29:16.563Z,1.27
2022-09-14T19:31:44.724Z,0.82
2022-09-14T19:34:12.978Z,0.77
2022-09-14T19:36:41.466Z,1.25
2022-09-14T19:39:09.963Z,1.95
2022-09-14T19:41:38.457Z,0.88
2022-09-14T19:44:07.895Z,2.22
2022-09-14T19:46:39.791Z,1.80
2022-09-14T19:49:12.926Z,4.03
2022-09-14T19:51:41.515Z,4.63
2022-09-14T19:54:10.196Z,2.92
2022-09-14T19:56:38.906Z,1.48
2022-09-14T19:59:08.385Z,2.17
2022-09-14T20:01:39.508Z,1.70
2022-09-14T20:04:09.022Z,3.17
2022-09-14T20:06:40.435Z,2.42
2022-09-14T20:09:10.516Z,5.47
2022-09-14T20:11:40.506Z,1.75
2022-09-14T20:14:13.486Z,2.10
2022-09-14T20:16:44.480Z,1.67
2022-09-14T20:19:14.727Z,1.63
2022-09-14T20:21:43.896Z,2.03
2022-09-14T20:24:16.658Z,2.90
2022-09-14T20:29:14.522Z,2.63
2022-09-14T20:31:44.770Z,1.88
2022-09-14T20:34:13.838Z,2.08
2022-09-14T20:36:42.280Z,2.00
2022-09-14T20:39:11.137Z,2.08
2022-09-14T20:41:39.979Z,4.55
2022-09-14T20:44:08.946Z,1.33
2022-09-14T20:46:42.622Z,3.03
2022-09-14T20:49:14.748Z,2.55
2022-09-14T20:51:43.457Z,3.30
2022-09-14T20:54:14.387Z,1.42
2022-09-14T20:56:44.125Z,2.53
2022-09-14T20:59:14.325Z,2.75
2022-09-14T21:01:44.257Z,3.30
2022-09-14T21:04:15.505Z,2.45
2022-09-14T21:06:46.207Z,3.63
2022-09-14T21:09:15.515Z,1.65
2022-09-14T21:11:45.755Z,1.70
2022-09-14T21:14:15.006Z,1.63
2022-09-14T21:16:46.201Z,2.35
2022-09-14T21:19:19.532Z,3.38
2022-09-14T21:21:48.677Z,1.52
2022-09-14T21:24:18.216Z,1.75
2022-09-14T21:26:46.985Z,1.90
2022-09-14T21:29:17.449Z,2.65
2022-09-14T21:31:46.035Z,1.63
2022-09-14T21:34:15.576Z,2.88
2022-09-14T21:36:45.567Z,1.23
2022-09-14T21:39:17.145Z,2.28
2022-09-14T21:41:46.465Z,1.92
2022-09-14T21:44:14.886Z,3.63
2022-09-14T21:46:43.351Z,1.50
2022-09-14T21:49:16.780Z,2.25
2022-09-14T21:51:47.026Z,0.93
2022-09-14T21:54:15.765Z,2.08
2022-09-14T21:56:45.247Z,1.63
2022-09-14T21:59:19.187Z,1.00
2022-09-14T22:01:48.747Z,1.48
2022-09-14T22:04:20.195Z,1.55
2022-09-14T22:06:51.482Z,0.60
2022-09-14T22:09:22.336Z,1.52
2022-09-14T22:11:50.735Z,3.22
2022-09-14T22:14:21.127Z,2.72
2022-09-14T22:16:50.473Z,0.60
2022-09-14T22:19:21.935Z,1.73
2022-09-14T22:21:51.196Z,2.25
2022-09-14T22:24:21.296Z,0.70
2022-09-14T22:26:50.421Z,2.35
2022-09-14T22:29:19.876Z,0.82
2022-09-14T22:31:48.527Z,1.73
2022-09-14T22:34:17.305Z,2.03
2022-09-14T22:36:46.855Z,1.85
2022-09-14T22:39:15.305Z,0.70
2022-09-14T22:41:43.469Z,1.48
2022-09-14T22:44:13.418Z,0.80
2022-09-14T22:46:42.128Z,1.02
2022-09-14T22:49:10.647Z,1.73
2022-09-14T22:51:38.975Z,1.15
2022-09-14T22:54:08.701Z,0.95
2022-09-14T22:56:39.769Z,2.58
2022-09-14T22:59:10.912Z,0.90
2022-09-14T23:01:41.274Z,1.95
2022-09-14T23:04:11.945Z,2.67
2022-09-14T23:06:41.875Z,5.82
2022-09-14T23:09:14.286Z,1.17
2022-09-14T23:11:44.608Z,1.58
2022-09-14T23:14:12.918Z,1.10
2022-09-14T23:16:41.223Z,1.50
2022-09-14T23:19:09.455Z,2.33
2022-09-14T23:21:37.747Z,1.60
2022-09-14T23:24:07.616Z,1.90
2022-09-14T23:26:37.097Z,2.15
2022-09-14T23:29:07.346Z,3.70
2022-09-14T23:31:36.125Z,1.23
2022-09-14T23:34:05.826Z,1.77
2022-09-14T23:36:34.736Z,2.50
2022-09-14T23:39:03.894Z,6.07
2022-09-14T23:41:32.286Z,4.55
2022-09-14T23:44:01.945Z,7.18
2022-09-14T23:46:30.162Z,3.45
2022-09-14T23:48:58.325Z,5.07
2022-09-14T23:51:26.875Z,5.05
2022-09-14T23:53:55.205Z,5.20
2022-09-14T23:56:23.825Z,2.20
2022-09-14T23:58:52.150Z,2.67
